Hovedside
METAR-TAF:

METAR-TAF

Lufthavner :

Norfolkøya, Australia

breddegrad: 29-02S, lengdegrad: 167-56E, høyde over havet: 113 m

Gjeldene værobservasjon

Denne rapporten ble laget for 28 minutter siden, klokken 02:00 UTC
Vind 13 kt fra Vest
Temperatur 20°C
Luftfuktighet 60%
Trykk 1015 hPa
Sikt 10 km eller mer
Få skyer i en høyde av 3000 ft

METAR: YSNF 200200Z 26013KT 9999 FEW030 20/12 Q1015

Tid: 12:28 (02:28 UTC)

Varsel

Denne rapporten ble laget for 2 timer og 53 minutter siden, klokken 23:35 UTC
Varsel gyldig fra 20. klokken 00 UTC til 21. klokken 00 UTC
Vind 12 kt fra Sørvest
Sikt 10 km eller mer
Spredte skyer i en høyde av 3000 ft
lette regnbyger,

TAF: YSNF 192335Z 2000/2100 22012KT 9999 -SHRA SCT030

Værobservasjoner og værvarsel for over 4000 flyplasser (METAR- og TAF-rapporter).

Tilgjengelige stasjoner er representert av de røde og gule prikkene på kartet.

Hold musepekeren over prikken for å se navnet på stasjonen.

Klikk så for å se værobservasjoner og -varsler.

For å forandre kartet kan du klikke på den grønne knappen med svart kryss for å zoome inn, på den grønne knappen med strek for å zoome ut, eller på de grønne pilene for å se tilstøtende kart.


METAR-TAF: